sensor_id;sensor_type;location;lat;lon;timestamp;pressure;altitude;pressure_sealevel;temperature;humidity
6668;BME280;3370;47.712;9.082;2023-06-10T00:02:12;96527.22;;;18.70;56.44
6668;BME280;3370;47.712;9.082;2023-06-10T00:04:38;96534.47;;;18.76;55.74
6668;BME280;3370;47.712;9.082;2023-06-10T00:07:05;96533.78;;;18.74;56.13
6668;BME280;3370;47.712;9.082;2023-06-10T00:09:43;96525.97;;;18.74;55.98
6668;BME280;3370;47.712;9.082;2023-06-10T00:12:09;96534.22;;;18.79;56.16
6668;BME280;3370;47.712;9.082;2023-06-10T00:14:39;96534.56;;;18.86;55.26
6668;BME280;3370;47.712;9.082;2023-06-10T00:17:06;96539.69;;;18.76;56.28
6668;BME280;3370;47.712;9.082;2023-06-10T00:19:38;96528.44;;;18.66;56.13
6668;BME280;3370;47.712;9.082;2023-06-10T00:22:07;96526.78;;;18.65;56.59
6668;BME280;3370;47.712;9.082;2023-06-10T00:24:34;96535.34;;;18.46;57.15
6668;BME280;3370;47.712;9.082;2023-06-10T00:27:00;96532.19;;;18.42;57.98
6668;BME280;3370;47.712;9.082;2023-06-10T00:29:26;96528.00;;;18.30;57.75
6668;BME280;3370;47.712;9.082;2023-06-10T00:31:52;96533.09;;;18.10;59.38
6668;BME280;3370;47.712;9.082;2023-06-10T00:34:23;96524.41;;;18.00;59.71
6668;BME280;3370;47.712;9.082;2023-06-10T00:36:49;96521.06;;;18.09;59.20
6668;BME280;3370;47.712;9.082;2023-06-10T00:39:15;96524.09;;;18.14;59.81
6668;BME280;3370;47.712;9.082;2023-06-10T00:41:40;96519.41;;;18.08;60.21
6668;BME280;3370;47.712;9.082;2023-06-10T00:44:06;96526.78;;;18.03;60.17
6668;BME280;3370;47.712;9.082;2023-06-10T00:46:32;96527.03;;;18.00;59.82
6668;BME280;3370;47.712;9.082;2023-06-10T00:48:59;96522.66;;;18.00;60.33
6668;BME280;3370;47.712;9.082;2023-06-10T00:51:26;96523.22;;;18.04;60.19
6668;BME280;3370;47.712;9.082;2023-06-10T00:53:52;96525.06;;;18.13;60.01
6668;BME280;3370;47.712;9.082;2023-06-10T00:56:18;96522.19;;;18.16;60.50
6668;BME280;3370;47.712;9.082;2023-06-10T00:58:44;96521.00;;;18.20;60.63
6668;BME280;3370;47.712;9.082;2023-06-10T01:01:10;96518.53;;;17.98;61.04
6668;BME280;3370;47.712;9.082;2023-06-10T01:03:37;96518.28;;;18.01;60.88
6668;BME280;3370;47.712;9.082;2023-06-10T01:06:34;96515.88;;;18.09;60.99
6668;BME280;3370;47.712;9.082;2023-06-10T01:12:49;96513.88;;;18.01;60.43
6668;BME280;3370;47.712;9.082;2023-06-10T01:15:18;96516.38;;;18.03;60.77
6668;BME280;3370;47.712;9.082;2023-06-10T01:18:02;96519.38;;;17.98;60.70
6668;BME280;3370;47.712;9.082;2023-06-10T01:20:30;96515.22;;;17.96;60.93
6668;BME280;3370;47.712;9.082;2023-06-10T01:22:59;96523.28;;;17.93;61.52
6668;BME280;3370;47.712;9.082;2023-06-10T01:25:27;96517.53;;;17.78;61.80
6668;BME280;3370;47.712;9.082;2023-06-10T01:31:13;96512.09;;;17.60;62.72
6668;BME280;3370;47.712;9.082;2023-06-10T01:33:46;96520.19;;;17.46;63.36
6668;BME280;3370;47.712;9.082;2023-06-10T01:36:15;96515.44;;;17.51;63.44
6668;BME280;3370;47.712;9.082;2023-06-10T01:38:44;96521.84;;;17.47;63.65
6668;BME280;3370;47.712;9.082;2023-06-10T01:41:17;96522.59;;;17.37;63.97
6668;BME280;3370;47.712;9.082;2023-06-10T01:43:44;96530.66;;;17.23;64.61
6668;BME280;3370;47.712;9.082;2023-06-10T01:46:10;96533.38;;;17.21;64.54
6668;BME280;3370;47.712;9.082;2023-06-10T01:48:38;96528.31;;;17.20;64.90
6668;BME280;3370;47.712;9.082;2023-06-10T01:51:04;96538.38;;;17.13;64.97
6668;BME280;3370;47.712;9.082;2023-06-10T01:53:30;96539.44;;;17.11;65.01
6668;BME280;3370;47.712;9.082;2023-06-10T01:55:56;96531.88;;;17.19;64.89
6668;BME280;3370;47.712;9.082;2023-06-10T01:58:22;96537.88;;;17.19;64.91
6668;BME280;3370;47.712;9.082;2023-06-10T02:00:48;96541.53;;;17.28;64.46
6668;BME280;3370;47.712;9.082;2023-06-10T02:03:14;96541.75;;;17.25;64.55
6668;BME280;3370;47.712;9.082;2023-06-10T02:05:40;96540.38;;;17.21;64.57
6668;BME280;3370;47.712;9.082;2023-06-10T02:08:06;96545.56;;;17.21;65.08
6668;BME280;3370;47.712;9.082;2023-06-10T02:10:32;96546.75;;;17.17;64.76
6668;BME280;3370;47.712;9.082;2023-06-10T02:12:58;96544.06;;;17.07;65.77
6668;BME280;3370;47.712;9.082;2023-06-10T02:15:24;96540.28;;;17.00;66.01
6668;BME280;3370;47.712;9.082;2023-06-10T02:17:50;96547.34;;;17.09;65.92
6668;BME280;3370;47.712;9.082;2023-06-10T02:20:16;96553.03;;;17.03;65.99
6668;BME280;3370;47.712;9.082;2023-06-10T02:22:42;96553.84;;;17.03;66.19
6668;BME280;3370;47.712;9.082;2023-06-10T02:25:08;96562.03;;;16.99;66.21
6668;BME280;3370;47.712;9.082;2023-06-10T02:27:34;96555.16;;;16.98;66.43
6668;BME280;3370;47.712;9.082;2023-06-10T02:30:00;96564.25;;;17.03;66.14
6668;BME280;3370;47.712;9.082;2023-06-10T02:32:26;96564.94;;;17.05;66.86
6668;BME280;3370;47.712;9.082;2023-06-10T02:34:52;96565.44;;;16.99;65.96
6668;BME280;3370;47.712;9.082;2023-06-10T02:37:19;96563.44;;;17.03;66.21
6668;BME280;3370;47.712;9.082;2023-06-10T02:39:44;96565.91;;;17.04;65.85
6668;BME280;3370;47.712;9.082;2023-06-10T02:42:11;96566.38;;;17.10;65.79
6668;BME280;3370;47.712;9.082;2023-06-10T02:44:37;96567.09;;;17.12;65.09
6668;BME280;3370;47.712;9.082;2023-06-10T02:47:04;96562.97;;;16.86;66.15
6668;BME280;3370;47.712;9.082;2023-06-10T02:49:29;96562.72;;;16.67;67.44
6668;BME280;3370;47.712;9.082;2023-06-10T02:51:55;96563.53;;;16.67;67.11
6668;BME280;3370;47.712;9.082;2023-06-10T02:54:23;96570.03;;;16.62;67.96
6668;BME280;3370;47.712;9.082;2023-06-10T02:56:49;96566.03;;;16.58;68.00
6668;BME280;3370;47.712;9.082;2023-06-10T02:59:15;96566.16;;;16.56;68.59
6668;BME280;3370;47.712;9.082;2023-06-10T03:01:42;96569.13;;;16.52;68.16
6668;BME280;3370;47.712;9.082;2023-06-10T03:04:07;96574.91;;;16.55;67.88
6668;BME280;3370;47.712;9.082;2023-06-10T03:06:34;96585.94;;;16.46;68.57
6668;BME280;3370;47.712;9.082;2023-06-10T03:09:01;96578.91;;;16.48;68.25
6668;BME280;3370;47.712;9.082;2023-06-10T03:11:27;96575.59;;;16.57;67.35
6668;BME280;3370;47.712;9.082;2023-06-10T03:13:54;96584.75;;;16.39;68.09
6668;BME280;3370;47.712;9.082;2023-06-10T03:16:20;96591.72;;;16.27;69.06
6668;BME280;3370;47.712;9.082;2023-06-10T03:18:46;96593.72;;;16.35;68.80
6668;BME280;3370;47.712;9.082;2023-06-10T03:21:12;96586.91;;;16.34;69.36
6668;BME280;3370;47.712;9.082;2023-06-10T03:23:38;96588.78;;;16.32;68.43
6668;BME280;3370;47.712;9.082;2023-06-10T03:26:04;96600.91;;;16.20;69.55
6668;BME280;3370;47.712;9.082;2023-06-10T03:28:31;96594.91;;;16.19;70.01
6668;BME280;3370;47.712;9.082;2023-06-10T03:30:57;96592.41;;;16.18;70.00
6668;BME280;3370;47.712;9.082;2023-06-10T03:33:23;96598.31;;;16.31;70.25
6668;BME280;3370;47.712;9.082;2023-06-10T03:35:49;96602.59;;;16.32;70.15
6668;BME280;3370;47.712;9.082;2023-06-10T03:38:15;96599.84;;;16.22;70.19
6668;BME280;3370;47.712;9.082;2023-06-10T03:40:41;96598.41;;;16.18;70.81
6668;BME280;3370;47.712;9.082;2023-06-10T03:43:06;96597.00;;;16.14;70.71
6668;BME280;3370;47.712;9.082;2023-06-10T03:45:32;96594.41;;;16.14;71.28
6668;BME280;3370;47.712;9.082;2023-06-10T03:47:58;96600.53;;;16.13;70.96
6668;BME280;3370;47.712;9.082;2023-06-10T03:50:24;96596.31;;;16.23;70.88
6668;BME280;3370;47.712;9.082;2023-06-10T03:52:50;96601.97;;;16.17;71.07
6668;BME280;3370;47.712;9.082;2023-06-10T03:55:16;96600.78;;;16.10;71.72
6668;BME280;3370;47.712;9.082;2023-06-10T03:57:43;96605.97;;;16.10;72.06
6668;BME280;3370;47.712;9.082;2023-06-10T04:00:09;96607.13;;;16.06;72.15
6668;BME280;3370;47.712;9.082;2023-06-10T04:02:37;96608.06;;;16.05;72.49
6668;BME280;3370;47.712;9.082;2023-06-10T04:05:07;96611.84;;;16.12;72.10
6668;BME280;3370;47.712;9.082;2023-06-10T04:07:33;96612.16;;;16.32;72.23
6668;BME280;3370;47.712;9.082;2023-06-10T04:09:59;96618.63;;;16.37;71.84
6668;BME280;3370;47.712;9.082;2023-06-10T04:12:25;96611.09;;;16.45;71.18
6668;BME280;3370;47.712;9.082;2023-06-10T04:14:51;96610.84;;;16.48;71.12
6668;BME280;3370;47.712;9.082;2023-06-10T04:17:17;96612.16;;;16.43;71.75
6668;BME280;3370;47.712;9.082;2023-06-10T04:19:43;96610.72;;;16.39;71.65
6668;BME280;3370;47.712;9.082;2023-06-10T04:22:09;96615.56;;;16.32;72.86
6668;BME280;3370;47.712;9.082;2023-06-10T04:24:34;96619.09;;;16.31;72.56
6668;BME280;3370;47.712;9.082;2023-06-10T04:27:01;96618.25;;;16.31;72.83
6668;BME280;3370;47.712;9.082;2023-06-10T04:29:27;96622.28;;;16.35;72.86
6668;BME280;3370;47.712;9.082;2023-06-10T04:31:52;96620.97;;;16.40;73.04
6668;BME280;3370;47.712;9.082;2023-06-10T04:34:18;96622.75;;;16.40;72.89
6668;BME280;3370;47.712;9.082;2023-06-10T04:36:44;96622.97;;;16.37;73.54
6668;BME280;3370;47.712;9.082;2023-06-10T04:39:10;96620.16;;;16.51;73.40
6668;BME280;3370;47.712;9.082;2023-06-10T04:41:35;96629.34;;;16.44;73.44
6668;BME280;3370;47.712;9.082;2023-06-10T04:44:01;96625.84;;;16.45;73.26
6668;BME280;3370;47.712;9.082;2023-06-10T04:46:27;96633.63;;;16.45;73.26
6668;BME280;3370;47.712;9.082;2023-06-10T04:48:53;96631.84;;;16.57;72.29
6668;BME280;3370;47.712;9.082;2023-06-10T04:51:20;96633.19;;;16.62;71.53
6668;BME280;3370;47.712;9.082;2023-06-10T04:53:45;96636.94;;;16.58;71.97
6668;BME280;3370;47.712;9.082;2023-06-10T04:56:11;96636.69;;;16.50;72.02
6668;BME280;3370;47.712;9.082;2023-06-10T04:58:37;96632.44;;;16.49;72.63
6668;BME280;3370;47.712;9.082;2023-06-10T05:01:03;96642.13;;;16.58;71.91
6668;BME280;3370;47.712;9.082;2023-06-10T05:03:28;96638.22;;;16.53;72.22
6668;BME280;3370;47.712;9.082;2023-06-10T05:05:54;96646.72;;;16.55;72.56
6668;BME280;3370;47.712;9.082;2023-06-10T05:08:20;96642.13;;;16.58;72.68
6668;BME280;3370;47.712;9.082;2023-06-10T05:10:46;96650.16;;;16.66;72.80
6668;BME280;3370;47.712;9.082;2023-06-10T05:13:11;96646.16;;;16.74;72.88
6668;BME280;3370;47.712;9.082;2023-06-10T05:15:37;96642.97;;;16.81;72.53
6668;BME280;3370;47.712;9.082;2023-06-10T05:18:03;96649.97;;;16.92;71.35
6668;BME280;3370;47.712;9.082;2023-06-10T05:20:29;96657.28;;;16.98;71.32
6668;BME280;3370;47.712;9.082;2023-06-10T05:22:55;96650.34;;;16.99;70.84
6668;BME280;3370;47.712;9.082;2023-06-10T05:25:21;96656.13;;;17.02;70.52
6668;BME280;3370;47.712;9.082;2023-06-10T05:27:47;96653.16;;;17.07;70.24
6668;BME280;3370;47.712;9.082;2023-06-10T05:30:13;96656.81;;;17.04;70.32
6668;BME280;3370;47.712;9.082;2023-06-10T05:32:38;96658.94;;;17.11;70.72
6668;BME280;3370;47.712;9.082;2023-06-10T05:35:04;96664.13;;;17.11;70.95
6668;BME280;3370;47.712;9.082;2023-06-10T05:37:33;96663.19;;;17.12;71.14
6668;BME280;3370;47.712;9.082;2023-06-10T05:39:59;96664.13;;;17.11;71.60
6668;BME280;3370;47.712;9.082;2023-06-10T05:42:25;96666.59;;;17.12;71.72
6668;BME280;3370;47.712;9.082;2023-06-10T05:44:50;96668.59;;;17.20;72.15
6668;BME280;3370;47.712;9.082;2023-06-10T05:47:16;96672.34;;;17.38;71.28
6668;BME280;3370;47.712;9.082;2023-06-10T05:49:42;96674.03;;;17.39;70.77
6668;BME280;3370;47.712;9.082;2023-06-10T05:52:08;96672.13;;;17.41;70.91
6668;BME280;3370;47.712;9.082;2023-06-10T05:54:34;96674.03;;;17.39;70.04
6668;BME280;3370;47.712;9.082;2023-06-10T05:56:59;96666.19;;;17.51;69.82
6668;BME280;3370;47.712;9.082;2023-06-10T05:59:25;96676.22;;;17.67;69.24
6668;BME280;3370;47.712;9.082;2023-06-10T06:01:51;96677.25;;;17.75;69.41
6668;BME280;3370;47.712;9.082;2023-06-10T06:04:17;96687.16;;;17.81;68.83
6668;BME280;3370;47.712;9.082;2023-06-10T06:06:42;96684.94;;;17.77;70.05
6668;BME280;3370;47.712;9.082;2023-06-10T06:09:08;96676.28;;;17.76;70.28
6668;BME280;3370;47.712;9.082;2023-06-10T06:11:34;96674.28;;;17.80;70.65
6668;BME280;3370;47.712;9.082;2023-06-10T06:14:01;96679.88;;;17.64;71.83
6668;BME280;3370;47.712;9.082;2023-06-10T06:16:26;96668.28;;;17.68;72.03
6668;BME280;3370;47.712;9.082;2023-06-10T06:18:52;96675.72;;;17.73;71.48
6668;BME280;3370;47.712;9.082;2023-06-10T06:21:18;96671.31;;;17.85;71.69
6668;BME280;3370;47.712;9.082;2023-06-10T06:23:44;96670.84;;;17.91;69.62
6668;BME280;3370;47.712;9.082;2023-06-10T06:26:10;96669.06;;;17.80;69.74
6668;BME280;3370;47.712;9.082;2023-06-10T06:28:35;96675.94;;;17.81;69.94
6668;BME280;3370;47.712;9.082;2023-06-10T06:31:01;96671.09;;;17.76;70.20
6668;BME280;3370;47.712;9.082;2023-06-10T06:33:27;96674.13;;;18.04;68.12
6668;BME280;3370;47.712;9.082;2023-06-10T06:35:53;96669.09;;;18.12;69.91
6668;BME280;3370;47.712;9.082;2023-06-10T06:38:18;96670.50;;;18.16;69.85
6668;BME280;3370;47.712;9.082;2023-06-10T06:40:44;96676.31;;;18.09;70.79
6668;BME280;3370;47.712;9.082;2023-06-10T06:43:10;96675.75;;;18.05;70.52
6668;BME280;3370;47.712;9.082;2023-06-10T06:45:36;96670.66;;;18.15;71.40
6668;BME280;3370;47.712;9.082;2023-06-10T06:48:01;96671.00;;;18.10;69.01
6668;BME280;3370;47.712;9.082;2023-06-10T06:50:28;96677.19;;;18.09;69.60
6668;BME280;3370;47.712;9.082;2023-06-10T06:52:53;96674.50;;;18.20;68.86
6668;BME280;3370;47.712;9.082;2023-06-10T06:55:19;96675.91;;;18.25;69.20
6668;BME280;3370;47.712;9.082;2023-06-10T06:57:45;96679.28;;;18.36;67.51
6668;BME280;3370;47.712;9.082;2023-06-10T07:00:11;96674.50;;;18.63;64.75
6668;BME280;3370;47.712;9.082;2023-06-10T07:02:37;96672.34;;;18.68;65.84
6668;BME280;3370;47.712;9.082;2023-06-10T07:05:03;96673.56;;;18.64;67.58
6668;BME280;3370;47.712;9.082;2023-06-10T07:07:29;96673.31;;;18.88;68.14
6668;BME280;3370;47.712;9.082;2023-06-10T07:09:55;96672.53;;;18.97;66.85
6668;BME280;3370;47.712;9.082;2023-06-10T07:12:20;96673.03;;;18.70;67.16
6668;BME280;3370;47.712;9.082;2023-06-10T07:14:50;96677.25;;;18.82;68.03
6668;BME280;3370;47.712;9.082;2023-06-10T07:17:17;96670.19;;;18.73;67.57
6668;BME280;3370;47.712;9.082;2023-06-10T07:19:44;96665.56;;;18.76;67.54
6668;BME280;3370;47.712;9.082;2023-06-10T07:22:10;96673.13;;;18.58;69.14
6668;BME280;3370;47.712;9.082;2023-06-10T07:24:36;96672.63;;;18.74;68.92
6668;BME280;3370;47.712;9.082;2023-06-10T07:27:02;96663.69;;;18.88;67.23
6668;BME280;3370;47.712;9.082;2023-06-10T07:29:28;96680.81;;;18.81;67.50
6668;BME280;3370;47.712;9.082;2023-06-10T07:31:53;96679.34;;;18.88;66.89
6668;BME280;3370;47.712;9.082;2023-06-10T07:34:19;96673.19;;;18.89;67.93
6668;BME280;3370;47.712;9.082;2023-06-10T07:36:45;96667.06;;;19.00;66.08
6668;BME280;3370;47.712;9.082;2023-06-10T07:39:11;96672.44;;;19.08;65.51
6668;BME280;3370;47.712;9.082;2023-06-10T07:41:37;96674.22;;;19.08;65.08
6668;BME280;3370;47.712;9.082;2023-06-10T07:44:02;96664.59;;;19.08;65.44
6668;BME280;3370;47.712;9.082;2023-06-10T07:46:28;96662.75;;;19.20;65.11
6668;BME280;3370;47.712;9.082;2023-06-10T07:48:55;96669.34;;;19.24;65.98
6668;BME280;3370;47.712;9.082;2023-06-10T07:51:21;96668.38;;;19.25;65.28
6668;BME280;3370;47.712;9.082;2023-06-10T07:53:47;96667.47;;;19.46;64.92
6668;BME280;3370;47.712;9.082;2023-06-10T07:56:13;96675.97;;;19.38;64.62
6668;BME280;3370;47.712;9.082;2023-06-10T07:58:39;96681.88;;;19.50;64.64
6668;BME280;3370;47.712;9.082;2023-06-10T08:01:05;96680.41;;;19.57;64.12
6668;BME280;3370;47.712;9.082;2023-06-10T08:03:30;96673.56;;;19.66;64.37
6668;BME280;3370;47.712;9.082;2023-06-10T08:05:56;96680.81;;;19.62;63.79
6668;BME280;3370;47.712;9.082;2023-06-10T08:08:22;96677.41;;;19.62;63.82
6668;BME280;3370;47.712;9.082;2023-06-10T08:10:48;96673.44;;;19.87;63.83
6668;BME280;3370;47.712;9.082;2023-06-10T08:13:15;96683.63;;;19.90;62.87
6668;BME280;3370;47.712;9.082;2023-06-10T08:15:40;96685.69;;;19.77;62.80
6668;BME280;3370;47.712;9.082;2023-06-10T08:18:06;96682.09;;;19.78;63.67
6668;BME280;3370;47.712;9.082;2023-06-10T08:20:32;96687.88;;;19.81;63.34
6668;BME280;3370;47.712;9.082;2023-06-10T08:22:58;96685.28;;;19.91;61.69
6668;BME280;3370;47.712;9.082;2023-06-10T08:25:24;96679.34;;;19.79;61.59
6668;BME280;3370;47.712;9.082;2023-06-10T08:27:49;96679.09;;;19.82;62.92
6668;BME280;3370;47.712;9.082;2023-06-10T08:30:16;96679.38;;;19.89;62.72
6668;BME280;3370;47.712;9.082;2023-06-10T08:32:42;96679.66;;;20.05;62.38
6668;BME280;3370;47.712;9.082;2023-06-10T08:35:08;96677.06;;;20.05;60.03
6668;BME280;3370;47.712;9.082;2023-06-10T08:37:34;96679.78;;;20.14;60.54
6668;BME280;3370;47.712;9.082;2023-06-10T08:39:59;96679.09;;;20.31;61.00
6668;BME280;3370;47.712;9.082;2023-06-10T08:42:33;96671.94;;;20.33;61.22
6668;BME280;3370;47.712;9.082;2023-06-10T08:45:01;96669.03;;;20.56;61.84
6668;BME280;3370;47.712;9.082;2023-06-10T08:47:30;96668.09;;;20.47;62.77
6668;BME280;3370;47.712;9.082;2023-06-10T08:50:03;96672.75;;;20.63;59.65
6668;BME280;3370;47.712;9.082;2023-06-10T08:52:36;96673.84;;;20.60;60.67
6668;BME280;3370;47.712;9.082;2023-06-10T08:55:27;96675.75;;;20.68;61.02
6668;BME280;3370;47.712;9.082;2023-06-10T08:57:52;96668.34;;;20.73;59.38
6668;BME280;3370;47.712;9.082;2023-06-10T09:00:19;96674.38;;;20.83;60.38
6668;BME280;3370;47.712;9.082;2023-06-10T09:02:45;96670.41;;;20.70;59.73
6668;BME280;3370;47.712;9.082;2023-06-10T09:05:12;96671.88;;;20.82;61.25
6668;BME280;3370;47.712;9.082;2023-06-10T09:07:39;96668.81;;;20.96;60.71
6668;BME280;3370;47.712;9.082;2023-06-10T09:10:06;96663.25;;;21.09;60.39
6668;BME280;3370;47.712;9.082;2023-06-10T09:12:35;96661.97;;;21.23;59.71
6668;BME280;3370;47.712;9.082;2023-06-10T09:15:01;96667.03;;;21.24;59.16
6668;BME280;3370;47.712;9.082;2023-06-10T09:17:28;96671.09;;;21.09;60.16
6668;BME280;3370;47.712;9.082;2023-06-10T09:19:54;96679.47;;;21.13;59.80
6668;BME280;3370;47.712;9.082;2023-06-10T09:22:22;96669.81;;;21.23;61.86
6668;BME280;3370;47.712;9.082;2023-06-10T09:24:49;96666.94;;;21.54;61.26
6668;BME280;3370;47.712;9.082;2023-06-10T09:27:14;96671.31;;;21.53;57.28
6668;BME280;3370;47.712;9.082;2023-06-10T09:29:54;96667.28;;;21.31;58.42
6668;BME280;3370;47.712;9.082;2023-06-10T09:32:21;96665.88;;;21.47;59.53
6668;BME280;3370;47.712;9.082;2023-06-10T09:34:47;96664.81;;;21.30;60.34
6668;BME280;3370;47.712;9.082;2023-06-10T09:37:20;96667.22;;;21.41;59.22
6668;BME280;3370;47.712;9.082;2023-06-10T09:40:02;96669.31;;;21.47;60.02
6668;BME280;3370;47.712;9.082;2023-06-10T09:42:33;96675.97;;;21.59;59.72
6668;BME280;3370;47.712;9.082;2023-06-10T09:45:02;96661.97;;;21.51;59.18
6668;BME280;3370;47.712;9.082;2023-06-10T09:47:28;96668.44;;;21.74;60.18
6668;BME280;3370;47.712;9.082;2023-06-10T09:49:53;96655.00;;;21.87;59.75
6668;BME280;3370;47.712;9.082;2023-06-10T09:52:24;96659.84;;;21.82;59.52
6668;BME280;3370;47.712;9.082;2023-06-10T09:54:51;96644.91;;;21.92;59.23
6668;BME280;3370;47.712;9.082;2023-06-10T09:57:19;96654.31;;;21.85;58.49
6668;BME280;3370;47.712;9.082;2023-06-10T09:59:45;96652.94;;;22.17;58.40
6668;BME280;3370;47.712;9.082;2023-06-10T10:02:15;96654.09;;;22.32;57.63
6668;BME280;3370;47.712;9.082;2023-06-10T10:04:42;96651.47;;;22.58;57.14
6668;BME280;3370;47.712;9.082;2023-06-10T10:07:10;96647.19;;;22.75;58.33
6668;BME280;3370;47.712;9.082;2023-06-10T10:09:37;96644.75;;;22.56;56.07
6668;BME280;3370;47.712;9.082;2023-06-10T10:12:13;96646.03;;;22.78;55.78
6668;BME280;3370;47.712;9.082;2023-06-10T10:14:46;96643.63;;;22.85;55.58
6668;BME280;3370;47.712;9.082;2023-06-10T10:17:15;96647.25;;;22.92;55.81
6668;BME280;3370;47.712;9.082;2023-06-10T10:19:48;96644.47;;;23.20;55.41
6668;BME280;3370;47.712;9.082;2023-06-10T10:22:29;96646.13;;;23.21;55.18
6668;BME280;3370;47.712;9.082;2023-06-10T10:24:57;96638.56;;;23.26;54.63
6668;BME280;3370;47.712;9.082;2023-06-10T10:27:30;96643.78;;;23.68;55.37
6668;BME280;3370;47.712;9.082;2023-06-10T10:29:58;96636.09;;;23.75;51.17
6668;BME280;3370;47.712;9.082;2023-06-10T10:35:21;96634.50;;;24.15;51.70
6668;BME280;3370;47.712;9.082;2023-06-10T10:37:52;96633.19;;;24.44;52.09
6668;BME280;3370;47.712;9.082;2023-06-10T10:40:20;96623.81;;;24.58;50.55
6668;BME280;3370;47.712;9.082;2023-06-10T10:42:48;96625.28;;;24.52;49.88
6668;BME280;3370;47.712;9.082;2023-06-10T10:45:15;96635.47;;;24.72;49.34
6668;BME280;3370;47.712;9.082;2023-06-10T10:47:42;96625.31;;;24.19;48.67
6668;BME280;3370;47.712;9.082;2023-06-10T10:50:17;96629.59;;;24.37;49.68
6668;BME280;3370;47.712;9.082;2023-06-10T10:55:22;96637.28;;;25.11;47.96
6668;BME280;3370;47.712;9.082;2023-06-10T11:00:33;96620.16;;;25.23;47.34
6668;BME280;3370;47.712;9.082;2023-06-10T11:08:03;96613.53;;;25.67;45.34
6668;BME280;3370;47.712;9.082;2023-06-10T11:10:38;96608.72;;;25.70;46.09
6668;BME280;3370;47.712;9.082;2023-06-10T11:13:14;96606.84;;;25.56;45.18
6668;BME280;3370;47.712;9.082;2023-06-10T11:15:45;96610.22;;;25.73;45.09
6668;BME280;3370;47.712;9.082;2023-06-10T11:18:38;96596.66;;;26.75;42.59
6668;BME280;3370;47.712;9.082;2023-06-10T11:21:05;96597.28;;;27.58;40.09
6668;BME280;3370;47.712;9.082;2023-06-10T11:23:33;96596.09;;;28.25;38.45
6668;BME280;3370;47.712;9.082;2023-06-10T11:31:23;96590.59;;;28.83;37.74
6668;BME280;3370;47.712;9.082;2023-06-10T11:34:00;96593.91;;;29.34;35.91
6668;BME280;3370;47.712;9.082;2023-06-10T11:36:28;96596.63;;;29.74;34.74
6668;BME280;3370;47.712;9.082;2023-06-10T11:39:00;96596.28;;;30.10;37.37
6668;BME280;3370;47.712;9.082;2023-06-10T11:41:28;96590.19;;;30.10;35.03
6668;BME280;3370;47.712;9.082;2023-06-10T11:43:55;96586.72;;;29.96;35.18
6668;BME280;3370;47.712;9.082;2023-06-10T11:46:24;96591.41;;;30.54;33.86
6668;BME280;3370;47.712;9.082;2023-06-10T11:48:55;96579.34;;;30.71;33.09
6668;BME280;3370;47.712;9.082;2023-06-10T11:51:22;96589.75;;;30.53;33.05
6668;BME280;3370;47.712;9.082;2023-06-10T11:53:49;96586.72;;;30.03;33.94
6668;BME280;3370;47.712;9.082;2023-06-10T11:56:26;96592.03;;;30.23;33.33
6668;BME280;3370;47.712;9.082;2023-06-10T11:59:01;96587.50;;;30.70;31.82
6668;BME280;3370;47.712;9.082;2023-06-10T12:01:33;96592.94;;;31.02;30.86
6668;BME280;3370;47.712;9.082;2023-06-10T12:04:07;96572.38;;;31.29;31.03
6668;BME280;3370;47.712;9.082;2023-06-10T12:06:47;96581.38;;;31.73;29.88
6668;BME280;3370;47.712;9.082;2023-06-10T12:09:25;96579.75;;;32.04;29.33
6668;BME280;3370;47.712;9.082;2023-06-10T12:12:02;96573.38;;;32.05;29.69
6668;BME280;3370;47.712;9.082;2023-06-10T12:14:51;96575.56;;;32.15;29.44
6668;BME280;3370;47.712;9.082;2023-06-10T12:20:04;96563.13;;;32.34;28.50
6668;BME280;3370;47.712;9.082;2023-06-10T12:22:42;96563.41;;;32.25;29.24
6668;BME280;3370;47.712;9.082;2023-06-10T12:25:09;96566.31;;;32.67;28.18
6668;BME280;3370;47.712;9.082;2023-06-10T12:27:36;96558.53;;;32.84;28.93
6668;BME280;3370;47.712;9.082;2023-06-10T12:30:04;96562.13;;;33.09;28.12
6668;BME280;3370;47.712;9.082;2023-06-10T12:32:43;96557.13;;;33.19;28.32
6668;BME280;3370;47.712;9.082;2023-06-10T12:35:12;96565.56;;;33.46;26.55
6668;BME280;3370;47.712;9.082;2023-06-10T12:37:41;96557.28;;;33.36;26.58
6668;BME280;3370;47.712;9.082;2023-06-10T12:40:08;96557.50;;;33.65;29.21
6668;BME280;3370;47.712;9.082;2023-06-10T12:42:37;96552.25;;;33.88;27.17
6668;BME280;3370;47.712;9.082;2023-06-10T12:45:04;96549.03;;;33.98;27.69
6668;BME280;3370;47.712;9.082;2023-06-10T12:47:37;96547.06;;;34.05;27.96
6668;BME280;3370;47.712;9.082;2023-06-10T12:50:07;96546.63;;;34.32;26.71
6668;BME280;3370;47.712;9.082;2023-06-10T12:52:34;96538.97;;;34.35;27.57
6668;BME280;3370;47.712;9.082;2023-06-10T12:55:00;96548.25;;;34.56;27.13
6668;BME280;3370;47.712;9.082;2023-06-10T12:57:26;96537.78;;;34.67;26.91
6668;BME280;3370;47.712;9.082;2023-06-10T12:59:52;96535.94;;;34.32;26.82
6668;BME280;3370;47.712;9.082;2023-06-10T13:02:19;96538.38;;;34.69;26.73
6668;BME280;3370;47.712;9.082;2023-06-10T13:04:46;96536.59;;;34.86;25.67
6668;BME280;3370;47.712;9.082;2023-06-10T13:07:13;96531.06;;;34.76;26.03
6668;BME280;3370;47.712;9.082;2023-06-10T13:09:38;96542.44;;;34.12;26.00
6668;BME280;3370;47.712;9.082;2023-06-10T13:12:05;96538.72;;;34.13;25.79
6668;BME280;3370;47.712;9.082;2023-06-10T13:14:31;96545.41;;;33.80;26.34
6668;BME280;3370;47.712;9.082;2023-06-10T13:16:57;96535.31;;;33.40;26.75
6668;BME280;3370;47.712;9.082;2023-06-10T13:19:23;96529.59;;;32.88;27.83
6668;BME280;3370;47.712;9.082;2023-06-10T13:21:48;96528.31;;;32.54;27.33
6668;BME280;3370;47.712;9.082;2023-06-10T13:24:14;96524.66;;;32.92;28.23
6668;BME280;3370;47.712;9.082;2023-06-10T13:26:41;96519.47;;;32.97;27.81
6668;BME280;3370;47.712;9.082;2023-06-10T13:29:07;96523.59;;;32.56;28.41
6668;BME280;3370;47.712;9.082;2023-06-10T13:31:40;96524.47;;;32.13;29.51
6668;BME280;3370;47.712;9.082;2023-06-10T13:34:06;96520.34;;;32.54;28.29
6668;BME280;3370;47.712;9.082;2023-06-10T13:36:32;96516.88;;;32.90;28.99
6668;BME280;3370;47.712;9.082;2023-06-10T13:38:58;96510.81;;;33.32;27.58
6668;BME280;3370;47.712;9.082;2023-06-10T13:41:24;96517.75;;;33.63;27.60
6668;BME280;3370;47.712;9.082;2023-06-10T13:43:50;96521.56;;;33.55;27.13
6668;BME280;3370;47.712;9.082;2023-06-10T13:46:16;96519.53;;;33.69;27.69
6668;BME280;3370;47.712;9.082;2023-06-10T13:48:41;96509.59;;;34.00;27.03
6668;BME280;3370;47.712;9.082;2023-06-10T13:51:07;96516.22;;;34.09;27.08
6668;BME280;3370;47.712;9.082;2023-06-10T13:53:34;96511.47;;;34.35;26.46